createdAt,value
2023-04-28T00:02:13.429Z,2.07
2023-04-28T00:05:00.461Z,1.80
2023-04-28T00:07:47.566Z,1.67
2023-04-28T00:10:34.777Z,5.90
2023-04-28T00:13:21.619Z,8.55
2023-04-28T00:16:08.495Z,6.67
2023-04-28T00:18:55.325Z,2.90
2023-04-28T00:21:42.126Z,2.38
2023-04-28T00:24:28.997Z,2.10
2023-04-28T00:27:15.784Z,2.20
2023-04-28T00:30:02.984Z,2.33
2023-04-28T00:32:49.809Z,3.00
2023-04-28T00:35:36.692Z,3.37
2023-04-28T00:38:25.504Z,2.78
2023-04-28T00:41:12.823Z,2.72
2023-04-28T00:44:02.351Z,2.60
2023-04-28T00:46:49.650Z,5.00
2023-04-28T00:49:36.887Z,3.45
2023-04-28T00:52:23.886Z,2.50
2023-04-28T00:55:10.850Z,2.67
2023-04-28T00:57:57.844Z,2.13
2023-04-28T01:00:44.705Z,2.27
2023-04-28T01:03:40.563Z,2.20
2023-04-28T01:06:28.704Z,3.05
2023-04-28T01:09:15.501Z,2.75
2023-04-28T01:12:02.396Z,2.60
2023-04-28T01:14:50.570Z,2.30
2023-04-28T01:17:37.461Z,2.47
2023-04-28T01:20:24.387Z,2.17
2023-04-28T01:23:15.580Z,2.50
2023-04-28T01:26:03.250Z,2.20
2023-04-28T01:28:50.349Z,2.33
2023-04-28T01:31:37.230Z,2.90
2023-04-28T01:34:24.239Z,2.07
2023-04-28T01:37:11.148Z,2.10
2023-04-28T01:39:57.938Z,2.40
2023-04-28T01:42:44.914Z,2.20
2023-04-28T01:45:31.733Z,2.30
2023-04-28T01:48:18.593Z,2.65
2023-04-28T01:51:05.608Z,2.40
2023-04-28T01:53:52.509Z,2.27
2023-04-28T01:56:39.361Z,2.30
2023-04-28T01:59:26.243Z,2.33
2023-04-28T02:02:13.186Z,2.57
2023-04-28T02:05:00.220Z,2.20
2023-04-28T02:07:47.279Z,2.42
2023-04-28T02:10:34.087Z,2.45
2023-04-28T02:13:20.896Z,2.80
2023-04-28T02:16:07.912Z,2.90
2023-04-28T02:18:54.738Z,2.20
2023-04-28T02:21:42.992Z,2.10
2023-04-28T02:24:29.784Z,2.30
2023-04-28T02:27:16.745Z,2.10
2023-04-28T02:30:07.495Z,2.13
2023-04-28T02:32:54.470Z,2.38
2023-04-28T02:35:43.118Z,2.30
2023-04-28T02:38:30.424Z,2.53
2023-04-28T02:41:17.250Z,2.10
2023-04-28T02:44:04.148Z,2.45
2023-04-28T02:46:51.341Z,2.70
2023-04-28T02:49:38.233Z,2.83
2023-04-28T02:52:25.012Z,3.10
2023-04-28T02:55:11.845Z,3.40
2023-04-28T02:57:58.703Z,3.30
2023-04-28T03:00:46.404Z,4.43
2023-04-28T03:03:33.773Z,4.53
2023-04-28T03:06:20.648Z,3.70
2023-04-28T03:09:08.228Z,3.40
2023-04-28T03:11:55.188Z,4.00
2023-04-28T03:14:42.138Z,4.37
2023-04-28T03:17:29.189Z,4.40
2023-04-28T03:20:16.231Z,4.07
2023-04-28T03:23:03.061Z,4.20
2023-04-28T03:25:49.842Z,4.83
2023-04-28T03:28:36.669Z,4.40
2023-04-28T03:31:24.203Z,3.72
2023-04-28T03:34:11.068Z,3.40
2023-04-28T03:36:57.872Z,3.15
2023-04-28T03:39:44.731Z,2.95
2023-04-28T03:42:31.526Z,2.97
2023-04-28T03:45:18.330Z,2.85
2023-04-28T03:48:05.538Z,2.90
2023-04-28T03:50:52.414Z,3.20
2023-04-28T03:53:39.256Z,3.00
2023-04-28T03:56:26.119Z,3.20
2023-04-28T03:59:13.198Z,3.17
2023-04-28T04:02:00.112Z,3.55
2023-04-28T04:04:47.253Z,3.50
2023-04-28T04:07:34.249Z,3.42
2023-04-28T04:10:22.275Z,3.28
2023-04-28T04:13:09.111Z,3.73
2023-04-28T04:15:56.056Z,3.08
2023-04-28T04:18:42.976Z,3.30
2023-04-28T04:21:30.079Z,3.07
2023-04-28T04:24:17.176Z,3.45
2023-04-28T04:27:04.137Z,4.13
2023-04-28T04:29:50.999Z,3.53
2023-04-28T04:32:38.126Z,3.97
2023-04-28T04:35:25.084Z,3.20
2023-04-28T04:38:13.129Z,3.28
2023-04-28T04:40:59.964Z,4.13
2023-04-28T04:43:46.860Z,3.90
2023-04-28T04:46:33.766Z,3.93
2023-04-28T04:49:20.673Z,4.07
2023-04-28T04:52:08.301Z,4.33
2023-04-28T04:54:56.527Z,4.20
2023-04-28T04:57:43.443Z,4.20
2023-04-28T05:00:30.339Z,4.93
2023-04-28T05:03:17.354Z,4.57
2023-04-28T05:06:04.321Z,5.47
2023-04-28T05:08:51.123Z,5.07
2023-04-28T05:11:37.930Z,5.65
2023-04-28T05:14:24.825Z,6.53
2023-04-28T05:17:12.314Z,5.77
2023-04-28T05:19:59.160Z,6.28
2023-04-28T05:22:46.273Z,20.35
2023-04-28T05:25:33.274Z,16.08
2023-04-28T05:28:21.975Z,8.10
2023-04-28T05:31:09.252Z,7.45
2023-04-28T05:33:56.138Z,7.60
2023-04-28T05:36:43.545Z,7.80
2023-04-28T05:39:30.677Z,6.22
2023-04-28T05:42:17.739Z,4.85
2023-04-28T05:45:06.926Z,5.45
2023-04-28T05:47:53.867Z,5.85
2023-04-28T05:50:41.092Z,7.07
2023-04-28T05:53:27.917Z,7.47
2023-04-28T05:56:16.338Z,6.78
2023-04-28T05:59:04.553Z,6.00
2023-04-28T06:01:51.553Z,5.43
2023-04-28T06:04:39.482Z,5.20
2023-04-28T06:07:26.402Z,4.80
2023-04-28T06:10:13.640Z,5.20
2023-04-28T06:13:00.613Z,4.82
2023-04-28T06:15:47.487Z,4.93
2023-04-28T06:18:34.752Z,4.53
2023-04-28T06:21:21.659Z,4.20
2023-04-28T06:24:08.537Z,4.43
2023-04-28T06:26:55.904Z,5.20
2023-04-28T06:29:42.766Z,5.20
2023-04-28T06:32:29.663Z,5.17
2023-04-28T06:35:16.790Z,4.77
2023-04-28T06:38:04.747Z,5.60
2023-04-28T06:40:51.694Z,5.10
2023-04-28T06:43:38.721Z,5.00
2023-04-28T06:46:25.664Z,4.88
2023-04-28T06:49:12.534Z,4.77
2023-04-28T06:51:59.360Z,5.87
2023-04-28T06:54:46.485Z,5.00
2023-04-28T06:57:33.336Z,5.00
2023-04-28T07:00:20.260Z,5.10
2023-04-28T07:03:07.226Z,5.20
2023-04-28T07:05:54.132Z,4.80
2023-04-28T07:08:41.958Z,3.80
2023-04-28T07:14:15.879Z,3.85
2023-04-28T07:17:03.291Z,2.97
2023-04-28T07:19:51.055Z,3.63
2023-04-28T07:22:38.685Z,2.85
2023-04-28T07:25:25.703Z,3.70
2023-04-28T07:28:14.178Z,3.60
2023-04-28T07:31:01.096Z,3.08
2023-04-28T07:33:47.934Z,5.80
2023-04-28T07:36:35.042Z,4.60
2023-04-28T07:39:21.898Z,4.75
2023-04-28T07:42:09.082Z,3.10
2023-04-28T07:44:57.772Z,2.20
2023-04-28T07:47:44.665Z,2.20
2023-04-28T07:50:31.744Z,1.80
2023-04-28T07:53:18.636Z,1.75
2023-04-28T07:56:05.825Z,2.10
2023-04-28T07:58:53.115Z,2.30
2023-04-28T08:01:40.191Z,2.70
2023-04-28T08:04:27.429Z,1.85
2023-04-28T08:07:14.848Z,1.58
2023-04-28T08:10:01.656Z,2.33
2023-04-28T08:12:48.610Z,1.90
2023-04-28T08:15:35.865Z,2.00
2023-04-28T08:18:25.088Z,1.70
2023-04-28T08:21:11.979Z,1.90
2023-04-28T08:23:58.803Z,3.37
2023-04-28T08:26:45.672Z,2.40
2023-04-28T08:29:33.256Z,2.97
2023-04-28T08:32:20.132Z,2.00
2023-04-28T08:35:07.868Z,4.57
2023-04-28T08:40:42.906Z,1.30
2023-04-28T08:43:30.238Z,0.88
2023-04-28T08:46:21.522Z,1.40
2023-04-28T08:49:15.115Z,1.30
2023-04-28T08:52:02.010Z,1.20
2023-04-28T08:54:51.178Z,0.70
2023-04-28T08:57:45.005Z,0.82
2023-04-28T09:00:32.596Z,0.80
2023-04-28T09:03:19.809Z,0.73
2023-04-28T09:06:06.697Z,0.90
2023-04-28T09:08:53.652Z,0.90
2023-04-28T09:11:55.553Z,0.80
2023-04-28T09:14:42.476Z,0.70
2023-04-28T09:17:29.337Z,0.77
2023-04-28T09:20:26.879Z,0.80
2023-04-28T09:23:14.788Z,0.60
2023-04-28T09:26:07.675Z,0.90
2023-04-28T09:29:13.094Z,0.60
2023-04-28T09:32:20.932Z,1.00
2023-04-28T09:35:08.471Z,2.28
2023-04-28T09:37:59.039Z,0.70
2023-04-28T09:41:02.980Z,0.60
2023-04-28T09:43:50.737Z,0.47
2023-04-28T09:46:37.570Z,0.50
2023-04-28T09:49:25.547Z,0.40
2023-04-28T09:52:13.721Z,1.10
2023-04-28T09:55:02.405Z,1.90
2023-04-28T09:57:52.208Z,0.90
2023-04-28T10:00:40.596Z,0.70
2023-04-28T10:03:29.987Z,0.20
2023-04-28T10:06:17.471Z,0.10
2023-04-28T10:09:05.975Z,0.00
2023-04-28T10:11:53.616Z,1.40
2023-04-28T10:14:42.598Z,0.20
2023-04-28T10:17:29.944Z,0.10
2023-04-28T10:20:17.284Z,0.30
2023-04-28T10:23:22.416Z,0.70
2023-04-28T10:26:12.767Z,0.10
2023-04-28T10:29:00.021Z,0.50
2023-04-28T10:32:19.293Z,0.10
2023-04-28T10:35:27.758Z,0.15
2023-04-28T10:38:18.276Z,0.00
2023-04-28T10:41:05.303Z,0.10
2023-04-28T10:43:52.109Z,0.10
2023-04-28T10:47:09.665Z,0.10
2023-04-28T10:49:59.619Z,0.10
2023-04-28T10:52:46.396Z,0.10
2023-04-28T10:55:36.504Z,0.03
2023-04-28T10:58:29.663Z,0.10
2023-04-28T11:01:22.332Z,0.00
2023-04-28T11:04:18.168Z,0.20
2023-04-28T11:07:14.642Z,0.00
2023-04-28T11:10:01.580Z,0.30
2023-04-28T11:13:26.567Z,0.20
2023-04-28T11:16:22.055Z,0.30
2023-04-28T11:19:12.273Z,0.40
2023-04-28T11:22:03.533Z,0.43
2023-04-28T11:25:04.068Z,0.10
2023-04-28T11:27:51.360Z,0.10
2023-04-28T11:30:38.193Z,0.20
2023-04-28T11:33:25.041Z,0.20
2023-04-28T11:36:24.050Z,0.30
2023-04-28T11:39:13.018Z,0.28
2023-04-28T11:42:02.468Z,0.10
2023-04-28T11:44:54.135Z,0.30
2023-04-28T11:47:41.025Z,0.40
2023-04-28T11:50:37.833Z,0.20
2023-04-28T11:53:46.520Z,0.30
2023-04-28T11:56:46.536Z,0.20
2023-04-28T11:59:35.453Z,0.10
2023-04-28T12:02:31.962Z,0.20
2023-04-28T12:05:20.855Z,0.15
2023-04-28T12:08:07.808Z,1.20
2023-04-28T12:11:09.908Z,0.10
2023-04-28T12:14:04.254Z,0.10
2023-04-28T12:16:51.560Z,0.57
2023-04-28T12:19:45.809Z,0.13
2023-04-28T12:22:47.595Z,0.10
2023-04-28T12:25:43.632Z,0.10
2023-04-28T12:28:40.500Z,0.20
2023-04-28T12:31:27.563Z,0.28
2023-04-28T12:34:14.473Z,0.38
2023-04-28T12:37:02.486Z,0.28
2023-04-28T12:39:49.361Z,0.10
2023-04-28T12:42:36.577Z,0.15
2023-04-28T12:45:23.377Z,0.30
2023-04-28T12:48:11.021Z,0.20
2023-04-28T12:53:44.554Z,0.15
2023-04-28T12:56:31.436Z,0.20
2023-04-28T12:59:18.416Z,0.10
2023-04-28T13:02:05.456Z,0.20
2023-04-28T13:04:53.603Z,0.10
2023-04-28T13:07:40.547Z,0.30
2023-04-28T13:10:27.436Z,0.20
2023-04-28T13:13:14.235Z,0.20
2023-04-28T13:16:01.212Z,0.17
2023-04-28T13:18:49.495Z,0.30
2023-04-28T13:21:39.086Z,0.30
2023-04-28T13:24:26.520Z,0.38
2023-04-28T13:27:13.481Z,0.40
2023-04-28T13:30:00.709Z,0.20
2023-04-28T13:32:47.644Z,0.25
2023-04-28T13:35:34.464Z,0.30
2023-04-28T13:38:21.522Z,0.20
2023-04-28T13:41:08.400Z,0.30
2023-04-28T13:43:55.274Z,0.20
2023-04-28T13:46:42.725Z,0.88
2023-04-28T13:49:29.571Z,1.23
2023-04-28T13:52:17.622Z,0.40
2023-04-28T13:55:04.748Z,0.35
2023-04-28T13:57:52.325Z,0.30
2023-04-28T14:00:39.329Z,0.30
2023-04-28T14:03:26.786Z,0.40
2023-04-28T14:06:13.725Z,0.50
2023-04-28T14:09:01.238Z,1.10
2023-04-28T14:11:48.108Z,0.80
2023-04-28T14:14:35.119Z,1.60
2023-04-28T14:17:22.065Z,1.10
2023-04-28T14:20:11.603Z,0.60
2023-04-28T14:22:59.422Z,1.35
2023-04-28T14:25:46.625Z,0.57
2023-04-28T14:28:33.571Z,0.40
2023-04-28T14:31:20.399Z,0.43
2023-04-28T14:34:08.831Z,0.70
2023-04-28T14:36:55.720Z,0.50
2023-04-28T14:39:43.396Z,0.70
2023-04-28T14:45:20.506Z,0.47
2023-04-28T14:48:08.059Z,0.60
2023-04-28T14:53:42.088Z,0.50
2023-04-28T14:56:28.901Z,0.60
2023-04-28T14:59:15.712Z,0.60
2023-04-28T15:02:03.243Z,0.60
2023-04-28T15:04:50.296Z,0.50
2023-04-28T15:07:37.579Z,0.40
2023-04-28T15:10:24.495Z,0.40
2023-04-28T15:13:11.496Z,0.32
2023-04-28T15:15:58.543Z,0.50
2023-04-28T15:18:46.155Z,0.60
2023-04-28T15:21:33.115Z,0.63
2023-04-28T15:24:21.455Z,0.60
2023-04-28T15:27:08.617Z,2.80
2023-04-28T15:29:55.616Z,0.40
2023-04-28T15:32:43.320Z,0.40
2023-04-28T15:38:19.256Z,0.50
2023-04-28T15:41:06.105Z,0.30
2023-04-28T15:43:52.978Z,0.30
2023-04-28T15:46:39.945Z,0.30
2023-04-28T15:49:26.734Z,0.50
2023-04-28T15:52:14.122Z,0.40
2023-04-28T15:55:01.000Z,0.30
2023-04-28T15:57:48.580Z,0.32
2023-04-28T16:00:35.888Z,0.50
2023-04-28T16:03:22.853Z,0.30
2023-04-28T16:06:09.863Z,0.40
2023-04-28T16:08:57.043Z,0.50
2023-04-28T16:11:47.234Z,0.40
2023-04-28T16:14:34.290Z,0.40
2023-04-28T16:17:22.335Z,0.40
2023-04-28T16:20:11.225Z,0.45
2023-04-28T16:22:58.341Z,0.50
2023-04-28T16:25:45.172Z,0.40
2023-04-28T16:28:32.971Z,0.50
2023-04-28T16:31:19.819Z,0.32
2023-04-28T16:34:06.730Z,0.50
2023-04-28T16:36:53.614Z,0.70
2023-04-28T16:39:41.512Z,0.50
2023-04-28T16:42:28.337Z,0.50
2023-04-28T16:45:15.594Z,0.50
2023-04-28T16:48:02.704Z,0.90
2023-04-28T16:50:49.550Z,0.70
2023-04-28T16:53:36.721Z,0.50
2023-04-28T16:56:23.641Z,1.40
2023-04-28T16:59:12.371Z,1.57
2023-04-28T17:02:00.227Z,1.00
2023-04-28T17:04:47.171Z,0.40
2023-04-28T17:07:34.174Z,0.90
2023-04-28T17:10:22.615Z,0.57
2023-04-28T17:13:10.216Z,1.92
2023-04-28T17:18:47.394Z,1.30
2023-04-28T17:21:34.494Z,1.33
2023-04-28T17:24:21.429Z,0.98
2023-04-28T17:27:09.673Z,1.40
2023-04-28T17:29:56.690Z,0.70
2023-04-28T17:32:43.741Z,0.90
2023-04-28T17:35:31.250Z,1.10
2023-04-28T17:38:18.263Z,0.88
2023-04-28T17:41:09.273Z,0.90
2023-04-28T17:43:57.789Z,1.10
2023-04-28T17:46:44.667Z,2.17
2023-04-28T17:49:31.675Z,1.02
2023-04-28T17:52:18.637Z,1.20
2023-04-28T17:55:06.129Z,0.80
2023-04-28T17:57:56.082Z,1.38
2023-04-28T18:00:43.016Z,1.50
2023-04-28T18:03:30.974Z,1.05
2023-04-28T18:06:23.373Z,0.82
2023-04-28T18:09:10.322Z,0.75
2023-04-28T18:11:57.872Z,0.50
2023-04-28T18:14:45.462Z,0.68
2023-04-28T18:17:36.834Z,0.60
2023-04-28T18:20:25.510Z,0.50
2023-04-28T18:23:14.985Z,0.60
2023-04-28T18:26:02.000Z,0.60
2023-04-28T18:28:50.246Z,0.73
2023-04-28T18:31:38.523Z,0.63
2023-04-28T18:34:25.871Z,1.00
2023-04-28T18:37:18.060Z,1.42
2023-04-28T18:40:08.765Z,1.48
2023-04-28T18:42:56.131Z,1.20
2023-04-28T18:45:45.342Z,1.42
2023-04-28T18:48:35.030Z,1.40
2023-04-28T18:51:29.880Z,1.20
2023-04-28T18:54:29.890Z,0.98
2023-04-28T18:57:23.039Z,0.73
2023-04-28T19:00:22.913Z,0.70
2023-04-28T19:03:17.470Z,0.70
2023-04-28T19:06:12.362Z,1.00
2023-04-28T19:08:59.325Z,0.80
2023-04-28T19:11:46.897Z,1.00
2023-04-28T19:14:36.550Z,1.58
2023-04-28T19:17:24.205Z,2.10
2023-04-28T19:20:11.666Z,2.10
2023-04-28T19:23:01.534Z,1.60
2023-04-28T19:25:53.118Z,1.13
2023-04-28T19:28:43.228Z,1.10
2023-04-28T19:31:32.115Z,1.20
2023-04-28T19:34:21.515Z,1.10
2023-04-28T19:37:12.955Z,2.20
2023-04-28T19:40:00.218Z,2.50
2023-04-28T19:42:47.342Z,2.00
2023-04-28T19:45:35.221Z,1.83
2023-04-28T19:48:29.865Z,1.30
2023-04-28T19:51:17.031Z,0.98
2023-04-28T19:54:04.229Z,1.38
2023-04-28T19:56:51.414Z,1.40
2023-04-28T19:59:38.569Z,1.30
2023-04-28T20:02:25.811Z,1.30
2023-04-28T20:05:12.999Z,1.05
2023-04-28T20:08:00.191Z,1.00
2023-04-28T20:10:47.214Z,1.27
2023-04-28T20:13:34.926Z,1.30
2023-04-28T20:19:12.059Z,1.40
2023-04-28T20:21:59.081Z,1.43
2023-04-28T20:24:45.876Z,0.98
2023-04-28T20:27:35.816Z,0.80
2023-04-28T20:30:27.732Z,0.70
2023-04-28T20:33:16.066Z,1.00
2023-04-28T20:36:06.087Z,1.50
2023-04-28T20:38:53.341Z,1.20
2023-04-28T20:41:48.139Z,1.27
2023-04-28T20:44:37.984Z,0.90
2023-04-28T20:47:27.123Z,1.02
2023-04-28T20:50:15.259Z,0.80
2023-04-28T20:53:02.122Z,2.00
2023-04-28T20:56:00.756Z,1.87
2023-04-28T20:58:48.092Z,1.50
2023-04-28T21:01:38.810Z,1.40
2023-04-28T21:04:28.730Z,1.00
2023-04-28T21:07:18.194Z,1.05
2023-04-28T21:10:05.687Z,0.98
2023-04-28T21:12:55.641Z,1.75
2023-04-28T21:15:44.981Z,1.55
2023-04-28T21:18:31.950Z,1.40
2023-04-28T21:21:19.222Z,1.80
2023-04-28T21:24:14.647Z,1.73
2023-04-28T21:27:07.176Z,2.10
2023-04-28T21:29:54.019Z,1.73
2023-04-28T21:32:42.295Z,1.73
2023-04-28T21:35:29.350Z,1.70
2023-04-28T21:38:19.383Z,2.63
2023-04-28T21:41:08.882Z,2.97
2023-04-28T21:43:55.721Z,3.05
2023-04-28T21:46:42.745Z,2.70
2023-04-28T21:49:29.667Z,2.65
2023-04-28T21:52:16.565Z,2.37
2023-04-28T21:55:03.551Z,2.63
2023-04-28T21:57:50.416Z,2.40
2023-04-28T22:00:41.820Z,2.00
2023-04-28T22:03:29.212Z,1.20
2023-04-28T22:06:16.268Z,2.47
2023-04-28T22:09:03.961Z,5.93
2023-04-28T22:14:41.320Z,4.97
2023-04-28T22:17:28.609Z,6.35
2023-04-28T22:20:15.599Z,4.47
2023-04-28T22:23:02.626Z,1.98
2023-04-28T22:25:49.473Z,1.02
2023-04-28T22:28:37.518Z,0.80
2023-04-28T22:31:24.370Z,0.90
2023-04-28T22:34:11.236Z,3.10
2023-04-28T22:36:58.133Z,4.03
2023-04-28T22:39:44.986Z,3.77
2023-04-28T22:42:32.501Z,2.10
2023-04-28T22:45:19.387Z,1.10
2023-04-28T22:48:06.447Z,0.90
2023-04-28T22:50:53.261Z,1.70
2023-04-28T22:53:40.073Z,2.15
2023-04-28T22:56:27.049Z,2.93
2023-04-28T22:59:13.857Z,1.83
2023-04-28T23:02:02.482Z,1.15
2023-04-28T23:04:49.635Z,0.77
2023-04-28T23:07:36.696Z,0.70
2023-04-28T23:10:23.544Z,0.57
2023-04-28T23:13:10.425Z,0.80
2023-04-28T23:16:01.828Z,2.90
2023-04-28T23:18:48.706Z,4.72
2023-04-28T23:21:35.673Z,4.23
2023-04-28T23:24:22.460Z,2.10
2023-04-28T23:27:09.697Z,1.50
2023-04-28T23:29:56.536Z,1.80
2023-04-28T23:32:43.676Z,2.93
2023-04-28T23:35:31.619Z,1.60
2023-04-28T23:38:18.450Z,1.00
2023-04-28T23:41:06.573Z,1.73
2023-04-28T23:43:53.722Z,2.10
2023-04-28T23:46:40.542Z,1.20
2023-04-28T23:49:27.419Z,1.35
2023-04-28T23:52:14.290Z,1.60
2023-04-28T23:55:01.124Z,2.00
2023-04-28T23:57:47.917Z,2.10
